Wray, Colorado
Current Conditions -  °F | °C
As of 2:35 AM on Tuesday 21 Oct 2014 (Local Time) from K2V5 Reporting Station
Clear Clear  
Wind Chill: 12°   Ceiling: Unl
Heat Index: 12°   Visibility: 10mi
Dew Point:   Wind: 9mph
Humidity: 66%   Direction: 180°S
Pressure: 30.05"   Gusts: NA
Location:  40.08°N, 102.22°W
Report Text: K2V5 210835Z AUTO 18008KT 10SM CLR 12/06 A3005 RMK AO2 T01210060
Loading
Personal Weather Stations






























Interactive Weather Map
Tropical Storm Tracking
New forecast layout! Learn more

10-Day Weather Forecast

Advertisements
Track Severe Weather on mobile